createdAt,value
2023-04-26T00:01:26.723Z,6.88
2023-04-26T00:03:53.779Z,6.25
2023-04-26T00:06:20.743Z,6.60
2023-04-26T00:08:49.006Z,6.85
2023-04-26T00:11:15.902Z,6.13
2023-04-26T00:13:42.771Z,6.30
2023-04-26T00:16:09.706Z,6.68
2023-04-26T00:18:36.644Z,6.18
2023-04-26T00:21:03.675Z,5.93
2023-04-26T00:23:30.555Z,6.38
2023-04-26T00:25:58.801Z,5.55
2023-04-26T00:28:25.737Z,5.75
2023-04-26T00:30:52.623Z,6.40
2023-04-26T00:33:19.472Z,5.97
2023-04-26T00:35:46.326Z,5.90
2023-04-26T00:38:13.201Z,5.95
2023-04-26T00:40:40.074Z,5.93
2023-04-26T00:43:08.382Z,5.70
2023-04-26T00:45:35.453Z,6.05
2023-04-26T00:48:02.641Z,5.95
2023-04-26T00:50:29.726Z,5.85
2023-04-26T00:52:56.646Z,5.95
2023-04-26T00:55:23.535Z,5.70
2023-04-26T00:57:50.410Z,5.82
2023-04-26T01:00:18.874Z,5.50
2023-04-26T01:02:45.792Z,5.72
2023-04-26T01:05:12.756Z,5.75
2023-04-26T01:07:39.721Z,5.05
2023-04-26T01:10:07.225Z,5.78
2023-04-26T01:12:34.089Z,5.72
2023-04-26T01:15:01.040Z,4.93
2023-04-26T01:17:29.420Z,5.20
2023-04-26T01:19:56.287Z,5.50
2023-04-26T01:22:23.164Z,5.30
2023-04-26T01:24:51.937Z,5.65
2023-04-26T01:27:18.778Z,5.70
2023-04-26T01:29:45.648Z,4.82
2023-04-26T01:32:12.506Z,5.28
2023-04-26T01:34:39.368Z,4.65
2023-04-26T01:37:06.204Z,4.93
2023-04-26T01:39:33.221Z,5.10
2023-04-26T01:42:01.464Z,5.43
2023-04-26T01:44:28.340Z,4.72
2023-04-26T01:46:55.231Z,4.47
2023-04-26T01:49:22.086Z,4.80
2023-04-26T01:51:48.978Z,4.70
2023-04-26T01:54:15.814Z,5.05
2023-04-26T01:56:42.695Z,5.20
2023-04-26T01:59:10.933Z,4.53
2023-04-26T02:01:37.793Z,4.82
2023-04-26T02:04:04.778Z,4.45
2023-04-26T02:06:31.663Z,4.50
2023-04-26T02:08:58.547Z,3.88
2023-04-26T02:11:25.424Z,4.00
2023-04-26T02:13:52.357Z,4.55
2023-04-26T02:16:20.601Z,4.10
2023-04-26T02:18:47.547Z,4.28
2023-04-26T02:21:16.196Z,4.43
2023-04-26T02:23:43.079Z,4.28
2023-04-26T02:26:09.960Z,4.25
2023-04-26T02:28:36.809Z,4.10
2023-04-26T02:31:03.713Z,4.05
2023-04-26T02:33:31.970Z,4.28
2023-04-26T02:35:58.880Z,3.97
2023-04-26T02:38:25.736Z,4.15
2023-04-26T02:40:58.506Z,3.92
2023-04-26T02:43:25.467Z,4.65
2023-04-26T02:45:52.348Z,4.05
2023-04-26T02:48:19.246Z,3.63
2023-04-26T02:50:47.735Z,3.95
2023-04-26T02:53:14.575Z,3.47
2023-04-26T02:55:41.432Z,4.18
2023-04-26T02:58:08.299Z,3.55
2023-04-26T03:00:35.259Z,3.90
2023-04-26T03:03:02.390Z,3.40
2023-04-26T03:05:29.297Z,3.78
2023-04-26T03:07:57.522Z,4.10
2023-04-26T03:10:24.388Z,3.83
2023-04-26T03:12:51.227Z,3.72
2023-04-26T03:15:18.227Z,3.60
2023-04-26T03:17:45.110Z,3.03
2023-04-26T03:20:12.510Z,3.40
2023-04-26T03:22:39.380Z,3.28
2023-04-26T03:25:08.305Z,3.42
2023-04-26T03:27:35.176Z,3.13
2023-04-26T03:30:02.052Z,3.30
2023-04-26T03:32:28.973Z,3.47
2023-04-26T03:34:56.013Z,3.33
2023-04-26T03:37:22.910Z,3.05
2023-04-26T03:39:49.771Z,3.25
2023-04-26T03:42:18.024Z,3.20
2023-04-26T03:44:44.887Z,3.40
2023-04-26T03:47:11.737Z,3.30
2023-04-26T03:49:38.648Z,3.47
2023-04-26T03:52:05.527Z,3.17
2023-04-26T03:54:32.427Z,3.30
2023-04-26T03:56:59.297Z,3.00
2023-04-26T03:59:27.633Z,3.70
2023-04-26T04:01:54.507Z,3.20
2023-04-26T04:04:21.617Z,2.92
2023-04-26T04:06:48.685Z,2.92
2023-04-26T04:09:15.549Z,2.92
2023-04-26T04:11:42.448Z,2.92
2023-04-26T04:14:09.327Z,3.67
2023-04-26T04:16:37.554Z,3.28
2023-04-26T04:19:04.425Z,3.45
2023-04-26T04:21:31.283Z,3.20
2023-04-26T04:23:58.137Z,3.13
2023-04-26T04:26:25.212Z,3.13
2023-04-26T04:28:52.281Z,3.20
2023-04-26T04:31:19.242Z,2.75
2023-04-26T04:33:47.544Z,2.85
2023-04-26T04:36:14.444Z,3.10
2023-04-26T04:38:41.308Z,3.38
2023-04-26T04:41:08.180Z,2.65
2023-04-26T04:43:35.029Z,2.80
2023-04-26T04:46:01.920Z,3.10
2023-04-26T04:48:28.811Z,2.72
2023-04-26T04:50:57.065Z,2.95
2023-04-26T04:53:23.946Z,2.60
2023-04-26T04:55:50.849Z,2.58
2023-04-26T04:58:17.718Z,2.72
2023-04-26T05:00:44.821Z,2.88
2023-04-26T05:03:11.827Z,2.70
2023-04-26T05:05:38.833Z,2.72
2023-04-26T05:08:07.082Z,2.72
2023-04-26T05:10:34.336Z,2.88
2023-04-26T05:13:01.246Z,3.00
2023-04-26T05:15:28.129Z,2.70
2023-04-26T05:17:55.098Z,2.63
2023-04-26T05:20:21.995Z,2.90
2023-04-26T05:22:48.838Z,2.88
2023-04-26T05:25:17.465Z,2.72
2023-04-26T05:27:44.559Z,2.75
2023-04-26T05:30:12.078Z,2.80
2023-04-26T05:32:39.005Z,2.30
2023-04-26T05:35:06.422Z,2.72
2023-04-26T05:37:33.302Z,2.33
2023-04-26T05:40:00.299Z,2.83
2023-04-26T05:42:28.540Z,2.70
2023-04-26T05:44:57.666Z,2.45
2023-04-26T05:47:24.602Z,2.47
2023-04-26T05:49:51.464Z,2.60
2023-04-26T05:52:18.364Z,2.58
2023-04-26T05:54:45.230Z,3.10
2023-04-26T05:57:12.148Z,2.70
2023-04-26T05:59:40.435Z,2.70
2023-04-26T06:02:07.326Z,2.50
2023-04-26T06:04:34.487Z,2.53
2023-04-26T06:07:01.559Z,2.65
2023-04-26T06:09:28.434Z,2.15
2023-04-26T06:11:55.337Z,2.58
2023-04-26T06:14:29.970Z,2.40
2023-04-26T06:16:58.933Z,2.90
2023-04-26T06:19:25.897Z,2.53
2023-04-26T06:21:52.796Z,2.70
2023-04-26T06:24:19.702Z,2.30
2023-04-26T06:26:46.560Z,2.45
2023-04-26T06:29:13.435Z,2.92
2023-04-26T06:31:40.437Z,2.67
2023-04-26T06:34:08.801Z,2.75
2023-04-26T06:36:35.694Z,2.50
2023-04-26T06:39:02.766Z,2.20
2023-04-26T06:41:29.676Z,2.97
2023-04-26T06:43:56.546Z,2.40
2023-04-26T06:46:23.468Z,2.40
2023-04-26T06:48:50.468Z,2.60
2023-04-26T06:51:18.697Z,2.30
2023-04-26T06:53:45.619Z,2.40
2023-04-26T06:56:12.488Z,2.33
2023-04-26T06:58:39.367Z,2.28
2023-04-26T07:01:06.306Z,2.50
2023-04-26T07:03:33.333Z,2.10
2023-04-26T07:06:00.319Z,2.40
2023-04-26T07:08:28.564Z,2.33
2023-04-26T07:10:55.484Z,2.60
2023-04-26T07:13:22.395Z,2.50
2023-04-26T07:15:49.339Z,2.00
2023-04-26T07:18:16.351Z,2.60
2023-04-26T07:20:43.427Z,2.60
2023-04-26T07:23:10.329Z,2.00
2023-04-26T07:25:38.576Z,2.00
2023-04-26T07:28:05.578Z,2.05
2023-04-26T07:30:32.463Z,2.20
2023-04-26T07:32:59.446Z,2.33
2023-04-26T07:35:26.400Z,1.83
2023-04-26T07:37:53.277Z,2.08
2023-04-26T07:40:20.401Z,2.20
2023-04-26T07:42:48.634Z,2.22
2023-04-26T07:45:15.610Z,1.90
2023-04-26T07:47:42.595Z,2.28
2023-04-26T07:50:10.839Z,2.00
2023-04-26T07:52:37.730Z,1.95
2023-04-26T07:55:05.365Z,2.25
2023-04-26T07:57:32.247Z,2.15
2023-04-26T08:00:00.492Z,1.98
2023-04-26T08:02:41.050Z,2.30
2023-04-26T08:05:11.335Z,2.42
2023-04-26T08:07:38.486Z,1.70
2023-04-26T08:10:06.204Z,2.00
2023-04-26T08:12:34.189Z,2.28
2023-04-26T08:15:02.706Z,2.20
2023-04-26T08:17:29.656Z,2.03
2023-04-26T08:19:56.548Z,2.20
2023-04-26T08:22:23.393Z,2.17
2023-04-26T08:24:50.372Z,2.22
2023-04-26T08:27:17.245Z,2.78
2023-04-26T08:29:44.102Z,2.03
2023-04-26T08:32:12.331Z,2.20
2023-04-26T08:34:39.211Z,2.28
2023-04-26T08:37:07.337Z,1.88
2023-04-26T08:39:34.240Z,2.25
2023-04-26T08:42:05.562Z,1.65
2023-04-26T08:44:34.067Z,1.98
2023-04-26T08:47:06.716Z,2.17
2023-04-26T08:49:39.768Z,1.80
2023-04-26T08:52:08.895Z,1.85
2023-04-26T08:54:35.759Z,1.98
2023-04-26T08:57:02.674Z,2.28
2023-04-26T08:59:29.883Z,2.00
2023-04-26T09:01:56.841Z,2.13
2023-04-26T09:04:23.916Z,1.70
2023-04-26T09:06:52.339Z,1.80
2023-04-26T09:09:19.391Z,1.85
2023-04-26T09:11:53.710Z,1.73
2023-04-26T09:14:20.601Z,2.10
2023-04-26T09:16:47.496Z,1.63
2023-04-26T09:19:14.384Z,1.80
2023-04-26T09:21:42.813Z,1.80
2023-04-26T09:24:11.101Z,1.70
2023-04-26T09:26:37.976Z,1.63
2023-04-26T09:29:17.681Z,1.75
2023-04-26T09:31:47.801Z,1.92
2023-04-26T09:34:16.339Z,1.92
2023-04-26T09:36:52.773Z,1.90
2023-04-26T09:39:31.755Z,1.90
2023-04-26T09:41:58.705Z,2.13
2023-04-26T09:44:25.600Z,1.98
2023-04-26T09:46:59.897Z,1.58
2023-04-26T09:49:27.003Z,1.63
2023-04-26T09:52:01.075Z,1.52
2023-04-26T09:54:43.207Z,1.50
2023-04-26T09:57:10.339Z,1.60
2023-04-26T09:59:41.470Z,1.85
2023-04-26T10:02:10.352Z,1.60
2023-04-26T10:04:37.275Z,1.80
2023-04-26T10:07:04.145Z,1.48
2023-04-26T10:09:31.465Z,1.60
2023-04-26T10:12:00.021Z,1.75
2023-04-26T10:14:26.886Z,1.85
2023-04-26T10:16:54.119Z,1.50
2023-04-26T10:19:21.642Z,1.50
2023-04-26T10:21:48.878Z,1.65
2023-04-26T10:24:15.763Z,1.80
2023-04-26T10:26:49.632Z,1.73
2023-04-26T10:32:07.124Z,1.65
2023-04-26T10:34:34.310Z,1.67
2023-04-26T10:37:07.946Z,1.67
2023-04-26T10:39:34.867Z,1.70
2023-04-26T10:42:21.902Z,1.55
2023-04-26T10:44:51.384Z,1.50
2023-04-26T10:47:22.995Z,1.27
2023-04-26T10:49:49.936Z,1.50
2023-04-26T10:52:17.275Z,1.88
2023-04-26T10:54:48.646Z,1.77
2023-04-26T10:57:15.744Z,1.80
2023-04-26T11:00:17.825Z,1.60
2023-04-26T11:02:45.330Z,1.70
2023-04-26T11:05:12.474Z,1.35
2023-04-26T11:07:39.506Z,1.48
2023-04-26T11:10:08.871Z,1.83
2023-04-26T11:12:35.768Z,1.63
2023-04-26T11:15:02.652Z,1.60
2023-04-26T11:17:36.656Z,1.50
2023-04-26T11:20:07.225Z,1.73
2023-04-26T11:22:34.115Z,1.67
2023-04-26T11:25:00.985Z,1.73
2023-04-26T11:27:27.906Z,1.40
2023-04-26T11:29:54.974Z,1.40
2023-04-26T11:32:21.880Z,1.50
2023-04-26T11:34:50.137Z,1.65
2023-04-26T11:37:16.978Z,1.85
2023-04-26T11:39:44.895Z,1.65
2023-04-26T11:42:12.210Z,1.70
2023-04-26T11:44:40.781Z,1.38
2023-04-26T11:47:08.127Z,1.63
2023-04-26T11:49:36.600Z,1.45
2023-04-26T11:52:05.156Z,1.63
2023-04-26T11:54:33.279Z,1.58
2023-04-26T11:57:00.126Z,1.40
2023-04-26T11:59:27.165Z,2.08
2023-04-26T12:01:55.509Z,1.52
2023-04-26T12:04:29.677Z,1.55
2023-04-26T12:06:57.060Z,1.65
2023-04-26T12:09:26.248Z,1.40
2023-04-26T12:11:57.342Z,1.40
2023-04-26T12:14:24.258Z,1.30
2023-04-26T12:16:51.208Z,1.40
2023-04-26T12:19:22.950Z,1.83
2023-04-26T12:21:49.813Z,1.75
2023-04-26T12:24:24.972Z,1.40
2023-04-26T12:26:51.859Z,1.42
2023-04-26T12:29:18.736Z,1.50
2023-04-26T12:31:46.223Z,1.80
2023-04-26T12:34:13.170Z,1.40
2023-04-26T12:36:40.852Z,1.48
2023-04-26T12:39:07.732Z,1.27
2023-04-26T12:41:36.006Z,1.40
2023-04-26T12:44:02.919Z,1.65
2023-04-26T12:46:29.930Z,1.52
2023-04-26T12:48:56.811Z,1.33
2023-04-26T12:51:24.042Z,1.30
2023-04-26T12:53:50.948Z,1.48
2023-04-26T12:56:17.831Z,1.30
2023-04-26T12:58:46.073Z,1.48
2023-04-26T13:01:13.577Z,1.30
2023-04-26T13:03:40.708Z,1.20
2023-04-26T13:06:07.945Z,1.67
2023-04-26T13:08:34.827Z,1.45
2023-04-26T13:11:01.743Z,1.42
2023-04-26T13:13:39.900Z,1.60
2023-04-26T13:16:11.144Z,1.73
2023-04-26T13:18:38.039Z,1.40
2023-04-26T13:21:05.352Z,1.30
2023-04-26T13:23:32.234Z,1.60
2023-04-26T13:25:59.131Z,1.63
2023-04-26T13:28:25.965Z,1.15
2023-04-26T13:30:52.837Z,1.20
2023-04-26T13:33:21.468Z,1.42
2023-04-26T13:35:48.479Z,1.40
2023-04-26T13:38:15.617Z,1.40
2023-04-26T13:40:42.856Z,1.10
2023-04-26T13:43:09.756Z,1.48
2023-04-26T13:45:36.837Z,1.50
2023-04-26T13:48:04.116Z,1.40
2023-04-26T13:50:32.439Z,1.20
2023-04-26T13:52:59.951Z,1.92
2023-04-26T13:55:26.810Z,1.40
2023-04-26T13:57:53.677Z,1.17
2023-04-26T14:00:21.512Z,1.77
2023-04-26T14:02:48.775Z,1.52
2023-04-26T14:05:15.973Z,1.48
2023-04-26T14:07:44.322Z,1.60
2023-04-26T14:10:11.736Z,1.30
2023-04-26T14:12:38.614Z,1.35
2023-04-26T14:15:06.780Z,1.17
2023-04-26T14:17:33.695Z,1.98
2023-04-26T14:20:00.684Z,1.25
2023-04-26T14:22:27.680Z,1.13
2023-04-26T14:24:55.951Z,1.50
2023-04-26T14:27:22.844Z,1.55
2023-04-26T14:29:49.790Z,1.55
2023-04-26T14:32:16.683Z,1.52
2023-04-26T14:34:43.620Z,1.30
2023-04-26T14:37:10.536Z,1.33
2023-04-26T14:39:37.608Z,1.35
2023-04-26T14:42:06.094Z,1.23
2023-04-26T14:44:32.986Z,1.00
2023-04-26T14:46:59.867Z,1.08
2023-04-26T14:49:26.766Z,1.48
2023-04-26T14:51:53.968Z,1.20
2023-04-26T14:54:20.966Z,1.40
2023-04-26T14:56:47.867Z,1.38
2023-04-26T14:59:16.286Z,1.10
2023-04-26T15:01:43.246Z,1.20
2023-04-26T15:04:10.394Z,1.50
2023-04-26T15:06:37.493Z,1.33
2023-04-26T15:09:04.515Z,1.27
2023-04-26T15:11:31.430Z,1.25
2023-04-26T15:13:58.305Z,1.25
2023-04-26T15:16:26.642Z,1.30
2023-04-26T15:18:53.739Z,1.17
2023-04-26T15:21:20.614Z,1.40
2023-04-26T15:23:47.486Z,1.50
2023-04-26T15:26:14.383Z,1.30
2023-04-26T15:28:41.220Z,1.65
2023-04-26T15:31:08.780Z,1.58
2023-04-26T15:33:37.252Z,1.00
2023-04-26T15:36:04.572Z,1.05
2023-04-26T15:38:31.465Z,1.30
2023-04-26T15:40:58.404Z,1.30
2023-04-26T15:43:25.346Z,1.13
2023-04-26T15:45:52.240Z,1.13
2023-04-26T15:48:19.112Z,1.15
2023-04-26T15:50:47.353Z,1.85
2023-04-26T15:53:14.208Z,1.27
2023-04-26T15:55:41.086Z,1.35
2023-04-26T15:58:07.948Z,1.25
2023-04-26T16:00:34.812Z,1.30
2023-04-26T16:03:01.768Z,1.08
2023-04-26T16:05:28.803Z,1.20
2023-04-26T16:07:57.045Z,1.30
2023-04-26T16:10:23.938Z,1.20
2023-04-26T16:12:50.817Z,1.35
2023-04-26T16:15:17.815Z,1.25
2023-04-26T16:17:44.761Z,1.38
2023-04-26T16:20:12.014Z,1.33
2023-04-26T16:22:38.882Z,1.52
2023-04-26T16:25:07.841Z,1.55
2023-04-26T16:27:34.709Z,1.52
2023-04-26T16:30:01.671Z,1.10
2023-04-26T16:32:28.565Z,1.42
2023-04-26T16:34:55.441Z,1.40
2023-04-26T16:37:22.286Z,1.27
2023-04-26T16:39:49.188Z,1.35
2023-04-26T16:42:17.443Z,0.90
2023-04-26T16:44:44.353Z,1.48
2023-04-26T16:47:11.249Z,1.50
2023-04-26T16:49:38.152Z,1.33
2023-04-26T16:52:05.035Z,1.25
2023-04-26T16:54:31.919Z,1.17
2023-04-26T16:56:58.808Z,1.20
2023-04-26T16:59:27.097Z,1.08
2023-04-26T17:01:53.984Z,1.40
2023-04-26T17:04:21.065Z,1.10
2023-04-26T17:06:48.102Z,0.90
2023-04-26T17:09:14.957Z,1.50
2023-04-26T17:11:41.883Z,1.40
2023-04-26T17:14:08.801Z,1.38
2023-04-26T17:19:03.986Z,1.17
2023-04-26T17:21:30.874Z,1.30
2023-04-26T17:23:57.882Z,1.10
2023-04-26T17:26:24.824Z,1.48
2023-04-26T17:28:51.762Z,1.25
2023-04-26T17:31:18.678Z,1.70
2023-04-26T17:33:46.938Z,1.20
2023-04-26T17:36:13.814Z,1.98
2023-04-26T17:38:40.972Z,1.40
2023-04-26T17:41:07.944Z,1.25
2023-04-26T17:43:34.847Z,1.75
2023-04-26T17:46:01.742Z,1.27
2023-04-26T17:48:28.713Z,1.58
2023-04-26T17:50:57.003Z,1.20
2023-04-26T17:53:23.933Z,1.55
2023-04-26T17:55:51.282Z,1.85
2023-04-26T17:58:18.148Z,1.98
2023-04-26T18:00:45.307Z,1.65
2023-04-26T18:03:12.576Z,1.52
2023-04-26T18:05:39.710Z,1.45
2023-04-26T18:08:08.199Z,1.33
2023-04-26T18:10:35.146Z,2.22
2023-04-26T18:13:02.324Z,2.08
2023-04-26T18:15:29.188Z,1.90
2023-04-26T18:17:56.084Z,1.27
2023-04-26T18:20:23.196Z,1.92
2023-04-26T18:22:50.094Z,2.08
2023-04-26T18:25:18.599Z,1.88
2023-04-26T18:27:46.754Z,1.73
2023-04-26T18:30:13.917Z,1.90
2023-04-26T18:32:40.838Z,1.52
2023-04-26T18:35:08.334Z,1.88
2023-04-26T18:37:35.246Z,1.77
2023-04-26T18:40:02.192Z,1.98
2023-04-26T18:42:30.481Z,2.03
2023-04-26T18:44:57.365Z,1.85
2023-04-26T18:47:24.348Z,1.80
2023-04-26T18:49:51.280Z,1.85
2023-04-26T18:52:18.131Z,1.80
2023-04-26T18:54:44.998Z,1.55
2023-04-26T18:57:11.842Z,1.75
2023-04-26T18:59:40.444Z,2.38
2023-04-26T19:02:07.379Z,2.30
2023-04-26T19:04:34.486Z,2.42
2023-04-26T19:07:01.519Z,2.17
2023-04-26T19:09:31.995Z,2.25
2023-04-26T19:12:02.120Z,2.25
2023-04-26T19:14:29.009Z,1.80
2023-04-26T19:16:57.539Z,1.80
2023-04-26T19:19:24.494Z,1.85
2023-04-26T19:21:51.349Z,1.90
2023-04-26T19:24:18.196Z,3.53
2023-04-26T19:26:45.286Z,3.78
2023-04-26T19:29:12.200Z,3.25
2023-04-26T19:31:39.234Z,2.60
2023-04-26T19:34:07.485Z,2.70
2023-04-26T19:36:34.422Z,3.03
2023-04-26T19:39:01.293Z,2.83
2023-04-26T19:41:28.182Z,3.35
2023-04-26T19:43:55.043Z,3.30
2023-04-26T19:46:21.960Z,3.45
2023-04-26T19:48:48.846Z,2.83
2023-04-26T19:51:17.264Z,3.70
2023-04-26T19:53:44.113Z,2.95
2023-04-26T19:56:10.972Z,3.78
2023-04-26T19:58:37.887Z,3.33
2023-04-26T20:01:04.856Z,3.00
2023-04-26T20:03:31.900Z,3.33
2023-04-26T20:05:58.875Z,3.10
2023-04-26T20:08:27.441Z,3.22
2023-04-26T20:10:54.985Z,3.00
2023-04-26T20:13:21.855Z,3.15
2023-04-26T20:15:48.739Z,3.55
2023-04-26T20:18:15.597Z,2.70
2023-04-26T20:20:42.535Z,2.78
2023-04-26T20:23:09.422Z,3.58
2023-04-26T20:25:37.671Z,2.90
2023-04-26T20:28:04.931Z,2.85
2023-04-26T20:30:31.864Z,2.95
2023-04-26T20:32:58.752Z,3.88
2023-04-26T20:35:26.920Z,3.05
2023-04-26T20:37:53.795Z,2.83
2023-04-26T20:40:20.681Z,2.72
2023-04-26T20:42:48.970Z,2.55
2023-04-26T20:45:15.960Z,3.55
2023-04-26T20:47:42.867Z,2.67
2023-04-26T20:50:10.591Z,3.10
2023-04-26T20:52:37.450Z,2.33
2023-04-26T20:55:04.959Z,2.60
2023-04-26T20:57:31.832Z,2.90
2023-04-26T21:00:00.118Z,2.50
2023-04-26T21:02:27.086Z,2.45
2023-04-26T21:04:54.222Z,2.40
2023-04-26T21:07:21.100Z,2.88
2023-04-26T21:09:47.951Z,3.03
2023-04-26T21:12:14.838Z,3.60
2023-04-26T21:14:41.699Z,3.30
2023-04-26T21:17:10.158Z,3.10
2023-04-26T21:19:37.076Z,3.20
2023-04-26T21:22:04.009Z,3.60
2023-04-26T21:24:30.900Z,3.53
2023-04-26T21:26:57.769Z,4.00
2023-04-26T21:29:24.620Z,3.22
2023-04-26T21:31:51.672Z,2.50
2023-04-26T21:34:20.054Z,3.92
2023-04-26T21:36:46.877Z,3.17
2023-04-26T21:39:13.735Z,3.08
2023-04-26T21:41:40.652Z,3.03
2023-04-26T21:44:07.539Z,2.92
2023-04-26T21:46:34.432Z,3.15
2023-04-26T21:49:01.357Z,2.92
2023-04-26T21:51:29.677Z,3.05
2023-04-26T21:53:56.545Z,2.38
2023-04-26T21:56:23.424Z,2.88
2023-04-26T21:58:50.283Z,2.75
2023-04-26T22:01:17.181Z,2.50
2023-04-26T22:03:44.189Z,2.67
2023-04-26T22:06:11.509Z,2.72
2023-04-26T22:08:39.726Z,2.30
2023-04-26T22:11:06.588Z,3.10
2023-04-26T22:13:33.498Z,3.65
2023-04-26T22:16:00.401Z,2.45
2023-04-26T22:18:27.339Z,2.30
2023-04-26T22:20:54.211Z,2.60
2023-04-26T22:23:21.036Z,3.08
2023-04-26T22:25:49.325Z,2.75
2023-04-26T22:28:16.226Z,2.72
2023-04-26T22:30:43.091Z,2.63
2023-04-26T22:33:10.046Z,2.60
2023-04-26T22:35:36.981Z,2.08
2023-04-26T22:38:03.854Z,2.70
2023-04-26T22:40:30.725Z,2.33
2023-04-26T22:42:58.961Z,2.45
2023-04-26T22:45:25.817Z,2.35
2023-04-26T22:47:52.761Z,2.38
2023-04-26T22:50:19.963Z,2.50
2023-04-26T22:52:46.831Z,2.60
2023-04-26T22:55:13.699Z,3.15
2023-04-26T22:57:40.553Z,2.35
2023-04-26T23:00:09.873Z,2.78
2023-04-26T23:02:36.899Z,1.90
2023-04-26T23:05:04.250Z,2.28
2023-04-26T23:07:33.114Z,2.67
2023-04-26T23:10:00.066Z,2.65
2023-04-26T23:12:26.964Z,2.30
2023-04-26T23:14:56.193Z,2.10
2023-04-26T23:17:24.465Z,2.10
2023-04-26T23:19:51.354Z,2.65
2023-04-26T23:22:18.218Z,2.88
2023-04-26T23:24:45.092Z,2.55
2023-04-26T23:27:11.955Z,1.95
2023-04-26T23:29:38.829Z,2.95
2023-04-26T23:32:05.723Z,2.03
2023-04-26T23:34:33.974Z,2.00
2023-04-26T23:37:07.230Z,2.50
2023-04-26T23:39:35.123Z,2.75
2023-04-26T23:42:02.120Z,1.92
2023-04-26T23:44:29.022Z,2.25
2023-04-26T23:46:56.060Z,2.00
2023-04-26T23:49:22.983Z,2.53
2023-04-26T23:51:51.208Z,2.33
2023-04-26T23:54:18.081Z,2.10
2023-04-26T23:56:44.952Z,2.35
2023-04-26T23:59:12.109Z,2.60
